ENFL

Florø Airport

Florø, Norway
TAF ENFL 151100Z 1512/1520 17015KT 9000 -RADZ FEW005 SCT007 BKN015 TEMPO 1512/1516 4000 DZRA BKN007
Issued Valid From Valid To
Aug-15 @ 11:00 UTC
(2 hours ago)
Aug-15 @ 12:00 UTC
(40 minutes ago)
Aug-15 @ 20:00 UTC
(in 7 hours)
Aug-15 @ 12:00 to Aug-15 @ 20:00
TAF ENFL 151100Z 1512/1520 17015KT 9000 -RADZ FEW005 SCT007 BKN015
Wind Visibility Clouds Conditions
170° at 15 knots 8,996 meters
  • Few at 500' AGL
  • Scattered at 700' AGL
  • Broken at 1,500' AGL
  • Light Rain
  • Light Drizzle
Temporary Aug-15 @ 12:00 to Aug-15 @ 16:00
TEMPO 1512/1516 4000 DZRA BKN007
Visibility Clouds Conditions
4,007 meters
  • Broken at 700' AGL
  • Drizzle
  • Rain
TAF ENFL 151100Z 1512/1520 17015KT 9000 -RADZ FEW005 SCT007 BKN015 TEMPO 1512/1516 4000 DZRA BKN007
Issued Aug-15 @ 11:00 UTC
(2 hours ago)
Valid From Aug-15 @ 12:00 UTC
(40 minutes ago)
Valid To Aug-15 @ 20:00 UTC
(in 7 hours)
Aug-15 @ 12:00 - Aug-15 @ 20:00
Wind Visibility
170° at 15 knots 8,996 meters
Clouds
  • Few at 500' AGL
  • Scattered at 700' AGL
  • Broken at 1,500' AGL
Conditions
  • Light Rain
  • Light Drizzle
Temporary Aug-15 @ 12:00 - Aug-15 @ 16:00
Clouds
  • Broken at 700' AGL
Conditions
  • Drizzle
  • Rain